Time;durP1;ratioP1;P1;durP2;ratioP2;P2;SDS_P1;SDS_P2;PMS_P1;PMS_P2;Temp;Humidity;BMP_temperature;BMP_pressure;BME280_temperature;BME280_humidity;BME280_pressure;Samples;Min_cycle;Max_cycle;Signal;HPM_P1;HPM_P2
2021/12/24 00:02:13;;;;;;;49.07;27.03;;;;;;;3.41;99.37;99952.47;5050453;28;20727;-76
2021/12/24 00:04:38;;;;;;;51.03;26.80;;;;;;;3.44;99.87;99952.59;5050498;28;20196;-76
2021/12/24 00:07:04;;;;;;;49.73;27.13;;;;;;;3.48;99.78;99948.47;5050877;28;20186;-76
2021/12/24 00:09:32;;;;;;;56.27;29.07;;;;;;;3.49;99.96;99948.53;5050665;28;20255;-76
2021/12/24 00:12:01;;;;;;;52.70;28.30;;;;;;;3.52;100.00;99953.72;5050641;28;20708;-76
2021/12/24 00:14:28;;;;;;;54.43;28.37;;;;;;;3.51;100.00;99957.06;5051524;28;20181;-76
2021/12/24 00:16:57;;;;;;;53.17;27.80;;;;;;;3.54;100.00;99953.75;5066261;28;20276;-74
2021/12/24 00:19:38;;;;;;;54.67;28.23;;;;;;;3.61;100.00;99946.41;5052344;28;20238;-75
2021/12/24 00:22:25;;;;;;;52.47;27.17;;;;;;;3.59;100.00;99940.44;5033706;28;20205;-76
2021/12/24 00:36:07;;;;;;;53.30;27.03;;;;;;;3.71;100.00;99950.97;5068649;28;20258;-77
2021/12/24 00:38:33;;;;;;;54.00;27.30;;;;;;;3.71;100.00;99952.63;5068533;28;20193;-77
2021/12/24 00:40:58;;;;;;;54.33;29.37;;;;;;;3.72;100.00;99940.00;5068475;28;20213;-77
2021/12/24 00:43:24;;;;;;;52.40;28.57;;;;;;;3.75;100.00;99944.31;5068744;28;20751;-77
2021/12/24 00:45:49;;;;;;;53.00;28.67;;;;;;;3.77;100.00;99946.06;5070123;28;20189;-77
2021/12/24 00:48:18;;;;;;;50.90;27.27;;;;;;;3.79;100.00;99948.66;5067984;28;20185;-76
2021/12/24 00:56:18;;;;;;;46.47;25.37;;;;;;;3.85;100.00;99951.38;5028804;28;20563;-76
2021/12/24 00:58:44;;;;;;;44.20;26.43;;;;;;;3.85;100.00;99949.72;5029677;28;20651;-76
2021/12/24 01:01:13;;;;;;;44.17;25.17;;;;;;;3.87;100.00;99949.78;5045042;28;20221;-76
2021/12/24 01:03:39;;;;;;;46.03;24.83;;;;;;;3.88;100.00;99946.41;5028487;28;20241;-76
2021/12/24 01:06:05;;;;;;;41.17;22.83;;;;;;;3.93;100.00;99932.22;5028517;28;20182;-77
2021/12/24 01:08:31;;;;;;;41.13;23.27;;;;;;;3.94;100.00;99933.94;5030139;28;20193;-77
2021/12/24 01:10:59;;;;;;;38.53;22.97;;;;;;;4.00;100.00;99929.91;5054912;28;20288;-76
2021/12/24 01:13:26;;;;;;;38.40;22.50;;;;;;;3.98;100.00;99933.22;5049278;28;20189;-77
2021/12/24 01:15:58;;;;;;;37.40;21.77;;;;;;;4.01;100.00;99928.25;5064716;28;20182;-76
2021/12/24 01:18:41;;;;;;;37.53;20.60;;;;;;;4.02;100.00;99930.84;5046104;28;20520;-76
2021/12/24 01:23:54;;;;;;;32.83;19.73;;;;;;;4.07;100.00;99941.09;5048367;28;20863;-77
2021/12/24 01:40:18;;;;;;;25.87;16.53;;;;;;;4.18;100.00;99922.88;5064393;28;20205;-76
2021/12/24 01:42:45;;;;;;;25.90;16.37;;;;;;;4.23;100.00;99930.63;5048379;28;20181;-77
2021/12/24 01:45:25;;;;;;;28.60;18.27;;;;;;;4.24;100.00;99922.22;5048939;28;20196;-76
2021/12/24 01:47:56;;;;;;;27.23;17.10;;;;;;;4.24;100.00;99923.03;5049734;28;20218;-76
2021/12/24 01:50:23;;;;;;;28.53;17.53;;;;;;;4.24;100.00;99917.97;5033315;28;20310;-77
2021/12/24 01:52:51;;;;;;;24.83;16.37;;;;;;;4.24;100.00;99922.22;5066800;28;20186;-77
2021/12/24 01:55:18;;;;;;;26.80;15.53;;;;;;;4.24;100.00;99917.97;5067001;28;20188;-77
2021/12/24 01:57:43;;;;;;;25.30;16.33;;;;;;;4.24;100.00;99912.91;5049028;28;20268;-77
2021/12/24 02:00:13;;;;;;;22.50;14.83;;;;;;;4.26;100.00;99918.91;5047139;28;20340;-77
2021/12/24 02:02:43;;;;;;;23.73;14.40;;;;;;;4.30;100.00;99913.13;5051774;28;20192;-77
2021/12/24 02:05:10;;;;;;;22.93;15.17;;;;;;;4.30;100.00;99912.25;5053138;28;20178;-77
2021/12/24 02:07:37;;;;;;;20.37;13.37;;;;;;;4.36;100.00;99907.34;5052993;28;20252;-77
2021/12/24 02:10:05;;;;;;;21.47;14.50;;;;;;;4.38;100.00;99900.66;5068020;28;20197;-76
2021/12/24 02:12:32;;;;;;;18.77;13.03;;;;;;;4.39;100.00;99912.50;5068195;28;20200;-77
2021/12/24 02:14:59;;;;;;;18.87;13.10;;;;;;;4.39;100.00;99893.09;5051537;28;20243;-76
2021/12/24 02:17:53;;;;;;;20.20;12.57;;;;;;;4.41;100.00;99891.47;5051602;28;20643;-77
2021/12/24 02:28:38;;;;;;;16.37;11.00;;;;;;;4.43;100.00;99879.72;5037759;28;20533;-77
2021/12/24 02:31:21;;;;;;;17.90;11.77;;;;;;;4.43;100.00;99876.31;5067774;28;20251;-77
2021/12/24 02:33:47;;;;;;;15.77;11.30;;;;;;;4.44;99.90;99875.47;5051429;28;20663;-77
2021/12/24 02:36:13;;;;;;;16.30;11.37;;;;;;;4.44;99.78;99878.88;5051286;28;20205;-77
2021/12/24 02:38:39;;;;;;;14.73;10.73;;;;;;;4.45;100.00;99880.59;5051226;28;20169;-77
2021/12/24 02:41:06;;;;;;;16.50;11.33;;;;;;;4.45;100.00;99878.06;5052643;28;20588;-77
2021/12/24 02:43:32;;;;;;;15.93;11.40;;;;;;;4.49;100.00;99871.41;5052520;28;20589;-77
2021/12/24 02:46:06;;;;;;;14.13;10.67;;;;;;;4.49;100.00;99869.72;5051150;28;20282;-77
2021/12/24 02:49:18;;;;;;;12.87;10.27;;;;;;;4.51;100.00;99874.84;5050697;28;20181;-77
2021/12/24 02:54:08;;;;;;;15.20;11.10;;;;;;;4.48;99.93;99867.16;5032309;28;20182;-77
2021/12/24 02:56:36;;;;;;;15.43;10.73;;;;;;;4.48;100.00;99868.03;5031232;28;20647;-77
2021/12/24 02:59:05;;;;;;;16.60;11.57;;;;;;;4.51;100.00;99864.72;5031971;28;20194;-77
2021/12/24 03:01:35;;;;;;;13.47;10.23;;;;;;;4.51;100.00;99857.94;5030772;28;20222;-77
2021/12/24 03:04:01;;;;;;;17.07;11.67;;;;;;;4.52;99.69;99852.06;5030714;28;20277;-77
2021/12/24 03:06:31;;;;;;;15.30;11.50;;;;;;;4.54;100.00;99852.97;5047336;28;20675;-77
2021/12/24 03:08:57;;;;;;;15.17;11.17;;;;;;;4.55;100.00;99846.25;5031960;28;20201;-77
2021/12/24 03:11:23;;;;;;;13.83;11.33;;;;;;;4.59;100.00;99856.47;5046778;28;20202;-77
2021/12/24 03:13:50;;;;;;;16.97;11.60;;;;;;;4.59;100.00;99860.69;5032309;28;20232;-76
2021/12/24 03:16:15;;;;;;;14.57;11.60;;;;;;;4.60;100.00;99857.34;5031540;28;20174;-77
2021/12/24 03:18:43;;;;;;;19.27;12.10;;;;;;;4.63;100.00;99848.16;5031727;28;20547;-77
2021/12/24 03:21:23;;;;;;;16.33;11.13;;;;;;;4.64;100.00;99854.06;5036791;28;20251;-76
2021/12/24 03:26:27;;;;;;;18.03;11.57;;;;;;;4.70;100.00;99852.53;5069172;28;20560;-76
2021/12/24 03:28:54;;;;;;;14.93;11.13;;;;;;;4.69;100.00;99850.84;5068445;28;20178;-77
2021/12/24 03:31:19;;;;;;;14.97;11.40;;;;;;;4.70;100.00;99846.63;5051785;28;20267;-76
2021/12/24 03:33:45;;;;;;;13.50;10.47;;;;;;;4.69;99.83;99860.97;5067379;28;20560;-77
2021/12/24 03:36:11;;;;;;;14.87;11.53;;;;;;;4.74;100.00;99859.41;5066690;28;20577;-77
2021/12/24 03:38:38;;;;;;;17.80;12.30;;;;;;;4.73;100.00;99852.63;5066442;28;20276;-77
2021/12/24 03:41:04;;;;;;;15.83;11.33;;;;;;;4.74;100.00;99846.75;5049843;28;20749;-77
2021/12/24 03:43:30;;;;;;;15.87;11.50;;;;;;;4.76;99.95;99846.78;5051524;28;20189;-77
2021/12/24 03:46:01;;;;;;;16.73;11.30;;;;;;;4.73;100.00;99842.50;5049994;28;20658;-76
2021/12/24 03:48:44;;;;;;;16.30;11.30;;;;;;;4.74;100.00;99836.59;5066685;28;20181;-77
2021/12/24 03:56:31;;;;;;;17.40;11.97;;;;;;;4.78;100.00;99822.34;5049632;28;20182;-77
2021/12/24 03:58:58;;;;;;;17.97;12.47;;;;;;;4.80;100.00;99825.78;5049399;28;20182;-77
2021/12/24 04:01:46;;;;;;;18.20;12.10;;;;;;;4.78;100.00;99812.22;5050764;28;20765;-77
2021/12/24 04:04:32;;;;;;;17.77;12.30;;;;;;;4.78;100.00;99807.13;5050738;28;20201;-77
2021/12/24 04:07:16;;;;;;;17.83;12.20;;;;;;;4.79;100.00;99813.91;5051005;28;20189;-77
2021/12/24 04:10:37;;;;;;;17.53;12.83;;;;;;;4.75;100.00;99810.41;5050627;28;20209;-77
2021/12/24 04:13:35;;;;;;;19.10;12.60;;;;;;;4.79;100.00;99814.75;5043144;28;20198;-77
2021/12/24 04:16:01;;;;;;;18.93;13.20;;;;;;;4.78;100.00;99813.03;5049309;28;20189;-76
2021/12/24 04:26:25;;;;;;;17.47;12.20;;;;;;;4.78;100.00;99822.34;5065767;28;20197;-77
2021/12/24 04:28:50;;;;;;;19.00;11.73;;;;;;;4.78;100.00;99827.41;5050252;28;20546;-76
2021/12/24 04:31:18;;;;;;;18.33;12.40;;;;;;;4.77;100.00;99831.63;5032080;28;20571;-77
2021/12/24 04:33:48;;;;;;;15.63;11.43;;;;;;;4.77;100.00;99834.16;5048849;28;20189;-77
2021/12/24 04:36:44;;;;;;;16.30;11.73;;;;;;;4.79;100.00;99831.66;5048823;28;20261;-77
2021/12/24 05:03:38;;;;;;;11.43;8.30;;;;;;;4.82;99.97;99847.81;5032399;28;20185;-77
2021/12/24 05:08:51;;;;;;;11.83;9.23;;;;;;;4.83;100.00;99851.22;5048257;28;20257;-77
2021/12/24 05:11:19;;;;;;;13.03;8.37;;;;;;;4.83;100.00;99849.50;5048498;28;20584;-77
2021/12/24 05:13:45;;;;;;;9.77;7.83;;;;;;;4.84;99.83;99851.22;5048256;28;20189;-77
2021/12/24 05:16:38;;;;;;;10.10;7.80;;;;;;;4.84;100.00;99856.28;5048366;28;20169;-77
2021/12/24 05:21:33;;;;;;;12.20;9.23;;;;;;;4.84;100.00;99851.22;5045205;28;20204;-77
2021/12/24 05:22:34;;;;;;;9.17;7.47;;;;;;;4.86;99.76;99848.72;5048192;28;20260;-77
2021/12/24 05:25:07;;;;;;;8.83;7.33;;;;;;;4.86;99.92;99846.19;5047975;28;20654;-77
2021/12/24 05:27:34;;;;;;;10.83;8.07;;;;;;;4.84;99.71;99846.16;5048137;28;20285;-77
2021/12/24 05:30:00;;;;;;;9.97;8.10;;;;;;;4.84;99.30;99856.28;5047713;28;20728;-76
2021/12/24 05:32:25;;;;;;;11.50;7.77;;;;;;;4.85;99.62;99859.69;5048150;28;20174;-77
2021/12/24 05:34:51;;;;;;;9.83;7.20;;;;;;;4.85;99.61;99860.56;5049191;28;20676;-76
2021/12/24 05:37:16;;;;;;;9.33;7.23;;;;;;;4.84;99.67;99871.50;5052302;28;20577;-77
2021/12/24 05:39:42;;;;;;;9.50;7.03;;;;;;;4.86;99.48;99874.97;5051775;28;20284;-77
2021/12/24 05:42:07;;;;;;;9.90;7.43;;;;;;;4.85;99.79;99863.09;5052251;28;20220;-76
2021/12/24 05:44:33;;;;;;;9.57;6.60;;;;;;;4.87;99.51;99861.47;5052154;28;20535;-76
2021/12/24 05:47:04;;;;;;;8.33;6.80;;;;;;;4.88;99.78;99863.16;5052163;28;20292;-77
2021/12/24 05:49:49;;;;;;;9.07;6.33;;;;;;;4.91;99.69;99859.84;5051534;28;20607;-76
2021/12/24 05:52:34;;;;;;;10.07;7.50;;;;;;;4.92;99.98;99852.28;5053358;28;20243;-77
2021/12/24 05:55:04;;;;;;;9.03;7.37;;;;;;;4.95;99.49;99843.91;5052273;28;20768;-77
2021/12/24 05:57:30;;;;;;;8.57;7.07;;;;;;;4.96;99.77;99848.16;5051943;28;20251;-78
2021/12/24 05:59:56;;;;;;;8.77;6.97;;;;;;;5.00;99.79;99860.09;5068177;28;20678;-77
2021/12/24 06:02:22;;;;;;;10.33;8.03;;;;;;;5.00;99.84;99866.03;5068266;28;20678;-76
2021/12/24 06:04:47;;;;;;;9.40;7.93;;;;;;;5.01;100.00;99865.19;5051745;28;20301;-77
2021/12/24 06:07:12;;;;;;;11.90;8.90;;;;;;;5.02;99.53;99873.69;5068374;28;20666;-77
2021/12/24 06:09:38;;;;;;;11.13;8.60;;;;;;;5.02;99.99;99871.16;5051825;28;20209;-77
2021/12/24 06:12:04;;;;;;;12.43;9.63;;;;;;;5.02;99.64;99864.38;5053243;28;20940;-77
2021/12/24 06:14:29;;;;;;;13.13;10.07;;;;;;;5.02;100.00;99859.31;5053285;28;20643;-76
2021/12/24 06:17:09;;;;;;;14.50;11.30;;;;;;;5.01;99.80;99856.75;5052969;28;20182;-77
2021/12/24 06:19:35;;;;;;;11.87;10.53;;;;;;;5.00;99.43;99850.81;5052911;28;20690;-77
2021/12/24 06:22:00;;;;;;;13.63;10.97;;;;;;;5.00;99.87;99857.53;5052811;28;20308;-77
2021/12/24 06:24:25;;;;;;;14.20;10.77;;;;;;;4.97;99.89;99863.41;5052908;28;20264;-77
2021/12/24 06:26:52;;;;;;;13.57;10.73;;;;;;;4.97;99.45;99870.19;5052567;28;20871;-77
2021/12/24 06:29:17;;;;;;;13.17;11.03;;;;;;;4.96;99.50;99861.69;5052301;28;20193;-77
2021/12/24 06:31:43;;;;;;;18.20;12.17;;;;;;;4.96;99.83;99863.34;5052497;28;20687;-77
2021/12/24 06:34:08;;;;;;;14.90;12.20;;;;;;;4.94;99.66;99868.41;5051380;28;20248;-77
2021/12/24 06:36:37;;;;;;;15.73;12.50;;;;;;;4.93;99.38;99861.59;5052530;28;20197;-77
2021/12/24 06:39:06;;;;;;;17.23;13.53;;;;;;;4.94;99.41;99862.47;5052472;28;20198;-77
2021/12/24 06:41:31;;;;;;;16.63;12.80;;;;;;;4.93;99.01;99871.75;5051099;28;20228;-76
2021/12/24 06:43:57;;;;;;;17.20;12.27;;;;;;;4.90;99.26;99875.88;5052313;28;20178;-76
2021/12/24 06:46:23;;;;;;;15.60;12.57;;;;;;;4.90;99.52;99873.34;5051566;28;20189;-76
2021/12/24 06:48:53;;;;;;;16.70;12.33;;;;;;;4.89;99.15;99866.56;5052182;28;20564;-76
2021/12/24 06:51:19;;;;;;;16.50;12.63;;;;;;;4.88;98.77;99883.47;5051323;28;20585;-76
2021/12/24 06:53:44;;;;;;;16.50;12.30;;;;;;;4.87;98.61;99886.81;5052331;28;20189;-77
2021/12/24 06:56:10;;;;;;;18.57;12.23;;;;;;;4.86;99.03;99881.69;5050783;28;20189;-77
2021/12/24 06:58:40;;;;;;;16.83;12.80;;;;;;;4.82;98.79;99878.22;5050762;28;20181;-79
2021/12/24 07:01:05;;;;;;;17.23;12.57;;;;;;;4.81;98.35;99879.06;5051371;28;20213;-77
2021/12/24 07:03:31;;;;;;;17.70;11.70;;;;;;;4.81;97.96;99873.13;5051666;28;20192;-77
2021/12/24 07:05:57;;;;;;;16.00;11.70;;;;;;;4.81;98.24;99878.19;5053084;28;20178;-77
2021/12/24 07:08:22;;;;;;;16.33;11.30;;;;;;;4.79;98.40;99889.97;5051552;28;20185;-77
2021/12/24 07:10:48;;;;;;;17.40;11.87;;;;;;;4.78;98.66;99890.81;5052768;28;20213;-77
2021/12/24 07:13:13;;;;;;;18.73;12.27;;;;;;;4.76;98.21;99898.38;5051304;28;20736;-77
2021/12/24 07:15:39;;;;;;;17.17;11.57;;;;;;;4.75;98.24;99901.69;5052441;28;20269;-77
2021/12/24 07:18:05;;;;;;;18.70;11.37;;;;;;;4.74;98.32;99899.13;5052527;28;20269;-77
2021/12/24 07:20:30;;;;;;;20.70;11.30;;;;;;;4.73;97.60;99902.47;5052480;28;20586;-77
2021/12/24 07:22:55;;;;;;;15.70;10.43;;;;;;;4.72;97.96;99894.03;5052168;28;20213;-77
2021/12/24 07:25:21;;;;;;;15.60;9.73;;;;;;;4.69;97.85;99899.00;5052286;28;20236;-78
2021/12/24 07:27:46;;;;;;;13.40;9.27;;;;;;;4.67;97.80;99898.13;5052455;28;20198;-77
2021/12/24 07:30:12;;;;;;;11.37;7.97;;;;;;;4.67;97.85;99904.84;5050708;28;20214;-78
2021/12/24 07:32:40;;;;;;;10.53;7.50;;;;;;;4.62;97.23;99898.78;5053255;28;20186;-77
2021/12/24 07:35:06;;;;;;;11.37;7.90;;;;;;;4.61;97.38;99905.53;5061953;28;20196;-77
2021/12/24 07:37:31;;;;;;;8.20;6.20;;;;;;;4.57;97.16;99903.75;5071463;28;20170;-77
2021/12/24 07:39:57;;;;;;;8.37;6.13;;;;;;;4.55;96.95;99910.44;5071016;28;20215;-77
2021/12/24 07:42:23;;;;;;;7.87;6.33;;;;;;;4.55;96.37;99918.03;5072649;28;20244;-77
2021/12/24 07:44:49;;;;;;;7.40;5.53;;;;;;;4.54;96.55;99915.47;5072092;28;20990;-77
2021/12/24 07:47:18;;;;;;;6.83;5.37;;;;;;;4.51;96.61;99933.97;5072792;28;20276;-78
2021/12/24 07:49:44;;;;;;;7.43;5.20;;;;;;;4.49;96.56;99934.75;5073642;28;20262;-78
2021/12/24 07:52:12;;;;;;;5.33;4.60;;;;;;;4.42;96.27;99931.19;5073938;28;20634;-78
2021/12/24 07:54:40;;;;;;;6.80;5.70;;;;;;;4.40;96.11;99942.09;5072409;28;20612;-78
2021/12/24 07:57:08;;;;;;;5.57;4.43;;;;;;;4.35;96.37;99938.56;5073860;28;20236;-77
2021/12/24 07:59:36;;;;;;;4.60;3.80;;;;;;;4.36;96.20;99937.75;5072761;28;20273;-77
2021/12/24 08:02:02;;;;;;;4.10;3.70;;;;;;;4.30;96.21;99940.97;5069402;28;20720;-77
2021/12/24 08:04:27;;;;;;;4.00;3.60;;;;;;;4.21;95.52;99940.72;5070881;28;20277;-77
2021/12/24 08:06:53;;;;;;;3.90;3.40;;;;;;;4.16;95.78;99942.25;5070694;28;20212;-76
2021/12/24 08:09:18;;;;;;;4.00;3.60;;;;;;;4.18;94.93;99954.97;5072010;28;20276;-77
2021/12/24 08:11:44;;;;;;;4.47;3.60;;;;;;;4.18;95.38;99960.88;5072746;28;20200;-77
2021/12/24 08:14:09;;;;;;;4.60;4.20;;;;;;;4.07;94.92;99956.28;5069612;28;20203;-77
2021/12/24 08:16:35;;;;;;;5.00;3.90;;;;;;;4.02;94.98;99953.63;5070672;28;20271;-76
2021/12/24 08:19:02;;;;;;;5.73;4.13;;;;;;;3.92;94.94;99955.84;5071067;28;20189;-77
2021/12/24 08:21:27;;;;;;;5.40;3.90;;;;;;;3.95;94.63;99958.47;5072152;28;20217;-77
2021/12/24 08:23:52;;;;;;;5.83;4.10;;;;;;;3.85;94.11;99958.97;5073716;28;20177;-78
2021/12/24 08:26:21;;;;;;;4.70;3.93;;;;;;;3.79;94.26;99961.31;5073027;28;20193;-78
2021/12/24 08:28:47;;;;;;;5.37;4.70;;;;;;;3.77;94.22;99963.78;5070841;28;20704;-78
2021/12/24 08:31:13;;;;;;;8.33;4.33;;;;;;;3.76;94.27;99963.75;5070315;28;20193;-79
2021/12/24 08:33:39;;;;;;;10.63;9.30;;;;;;;3.69;93.93;99961.84;5054743;28;20181;-77
2021/12/24 08:36:06;;;;;;;10.00;9.10;;;;;;;3.68;93.14;99962.66;5070726;28;20691;-77
2021/12/24 08:38:32;;;;;;;5.73;4.43;;;;;;;3.65;94.04;99976.09;5070210;28;20638;-76
2021/12/24 08:40:57;;;;;;;5.67;4.47;;;;;;;3.60;94.27;99975.06;5068924;28;20219;-77
2021/12/24 08:43:22;;;;;;;4.90;3.50;;;;;;;3.59;93.44;99975.00;5070787;28;20520;-77
2021/12/24 08:45:48;;;;;;;4.67;3.50;;;;;;;3.58;93.82;99964.03;5068498;28;20211;-77
2021/12/24 08:48:13;;;;;;;4.60;3.83;;;;;;;3.60;93.42;99976.72;5070224;28;20177;-78
2021/12/24 08:50:39;;;;;;;6.27;4.07;;;;;;;3.58;93.76;99991.00;5068474;28;20205;-77
2021/12/24 08:53:06;;;;;;;4.93;3.63;;;;;;;3.52;93.24;99998.38;5070591;28;20622;-78
2021/12/24 08:55:31;;;;;;;4.93;4.00;;;;;;;3.49;93.69;99989.03;5070532;28;20188;-78
2021/12/24 08:57:56;;;;;;;5.13;3.80;;;;;;;3.47;93.55;100003.31;5068854;28;20673;-77
2021/12/24 09:00:23;;;;;;;6.57;4.50;;;;;;;3.45;93.60;99997.31;5070511;28;20209;-78
2021/12/24 09:02:48;;;;;;;5.73;5.13;;;;;;;3.46;94.01;99983.88;5069200;28;20177;-78
2021/12/24 09:05:14;;;;;;;6.90;5.43;;;;;;;3.47;93.33;99977.13;5070785;28;20899;-78
2021/12/24 09:07:40;;;;;;;7.07;4.87;;;;;;;3.47;93.81;99978.00;5069134;28;20673;-78
2021/12/24 09:10:07;;;;;;;5.53;4.20;;;;;;;3.45;93.16;99972.00;5069448;28;20200;-77
2021/12/24 09:12:33;;;;;;;7.03;4.63;;;;;;;3.44;93.62;99975.38;5068657;28;20650;-78
2021/12/24 09:14:58;;;;;;;6.53;4.93;;;;;;;3.43;93.52;99975.31;5069996;28;20187;-77
2021/12/24 09:17:24;;;;;;;6.57;5.60;;;;;;;3.44;93.52;99979.53;5064236;28;20185;-78
2021/12/24 09:19:51;;;;;;;7.93;5.50;;;;;;;3.43;93.88;99980.38;5049870;28;20202;-78
2021/12/24 09:22:18;;;;;;;14.10;11.63;;;;;;;3.36;93.75;99983.53;5050026;28;20747;-78
2021/12/24 09:24:50;;;;;;;33.77;29.03;;;;;;;3.38;93.45;99980.22;5049886;28;20280;-77
2021/12/24 09:27:16;;;;;;;13.10;10.60;;;;;;;3.37;93.52;99982.69;5048300;28;20197;-77
2021/12/24 09:29:42;;;;;;;10.70;8.10;;;;;;;3.40;94.37;99977.75;5049137;28;20402;-77
2021/12/24 09:32:08;;;;;;;9.27;6.47;;;;;;;3.36;93.30;99983.53;5050066;28;20247;-77
2021/12/24 09:34:34;;;;;;;11.23;6.80;;;;;;;3.33;93.48;99985.94;5048564;28;20189;-78
2021/12/24 09:36:59;;;;;;;7.43;6.07;;;;;;;3.34;94.10;100002.81;5050309;28;20540;-78
2021/12/24 09:39:24;;;;;;;5.70;4.93;;;;;;;3.27;93.41;100006.81;5049578;28;20186;-77
2021/12/24 09:41:50;;;;;;;6.27;5.30;;;;;;;3.22;93.28;100020.13;5049514;28;20217;-78
2021/12/24 09:44:15;;;;;;;7.57;5.50;;;;;;;3.23;94.14;100030.31;5049709;28;20721;-77
2021/12/24 09:46:43;;;;;;;6.90;5.30;;;;;;;3.20;93.93;100026.78;5048175;28;20190;-78
2021/12/24 09:49:13;;;;;;;6.43;5.00;;;;;;;3.13;93.49;100042.56;5048082;28;20206;-78
2021/12/24 09:51:41;;;;;;;5.87;5.00;;;;;;;3.02;93.72;100037.13;5049460;28;20248;-77
2021/12/24 09:54:14;;;;;;;5.30;4.60;;;;;;;3.04;92.97;100038.00;5049254;28;20224;-78
2021/12/24 09:56:40;;;;;;;6.37;4.53;;;;;;;3.03;93.50;100043.03;5049361;28;20194;-77
2021/12/24 09:59:05;;;;;;;5.80;4.73;;;;;;;3.05;93.54;100049.88;5047816;28;20201;-77
2021/12/24 10:01:42;;;;;;;5.07;4.53;;;;;;;2.96;92.93;100061.31;5053310;28;20826;-78
2021/12/24 10:04:10;;;;;;;6.03;4.90;;;;;;;2.92;92.96;100057.81;5068028;28;20219;-77
2021/12/24 10:06:36;;;;;;;7.37;5.27;;;;;;;2.89;93.48;100057.69;5069198;28;20185;-77
2021/12/24 10:09:12;;;;;;;5.80;4.90;;;;;;;2.76;92.71;100055.53;5069178;28;20192;-78
2021/12/24 10:11:50;;;;;;;6.23;4.70;;;;;;;2.73;92.28;100057.94;5069398;28;20246;-77
2021/12/24 10:14:18;;;;;;;6.60;4.93;;;;;;;2.75;92.28;100061.38;5069467;28;20193;-77
2021/12/24 10:16:45;;;;;;;7.53;5.37;;;;;;;2.79;92.88;100059.81;5069454;28;20238;-77
2021/12/24 10:19:13;;;;;;;8.77;6.30;;;;;;;2.71;92.79;100062.06;5068931;28;20185;-77
2021/12/24 10:21:39;;;;;;;6.70;5.43;;;;;;;2.72;92.85;100062.94;5069655;28;20252;-77
2021/12/24 10:24:18;;;;;;;11.07;7.43;;;;;;;2.68;93.19;100068.69;5071563;28;20232;-77
2021/12/24 10:26:49;;;;;;;8.83;5.73;;;;;;;2.66;93.19;100076.19;5072598;28;20191;-77
2021/12/24 10:29:15;;;;;;;8.20;5.80;;;;;;;2.67;93.11;100072.03;5072089;28;20262;-77
2021/12/24 10:31:46;;;;;;;9.03;5.67;;;;;;;2.64;93.22;100087.94;5071377;28;20232;-77
2021/12/24 10:34:22;;;;;;;6.83;5.23;;;;;;;2.62;93.30;100094.56;5071388;28;20255;-77
2021/12/24 10:36:55;;;;;;;6.87;5.80;;;;;;;2.63;94.19;100091.25;5072623;28;20704;-78
2021/12/24 10:39:27;;;;;;;7.30;5.37;;;;;;;2.61;93.40;100090.31;5072708;28;20525;-77
2021/12/24 10:41:55;;;;;;;7.20;5.57;;;;;;;2.61;93.26;100090.31;5072365;28;20220;-77
2021/12/24 10:44:30;;;;;;;8.27;6.27;;;;;;;2.55;93.19;100094.28;5072463;28;20654;-77
2021/12/24 10:47:25;;;;;;;8.43;6.57;;;;;;;2.51;93.22;100100.88;5072330;28;20230;-77
2021/12/24 10:53:15;;;;;;;8.60;6.23;;;;;;;2.46;94.01;100094.78;5072283;28;20185;-78
2021/12/24 10:55:49;;;;;;;8.70;6.63;;;;;;;2.44;93.08;100096.38;5071809;28;20303;-77
2021/12/24 10:58:19;;;;;;;8.10;6.33;;;;;;;2.41;93.91;100093.75;5072042;28;20334;-78
2021/12/24 11:00:56;;;;;;;11.03;6.53;;;;;;;2.35;92.98;100095.19;5071987;28;20253;-77
2021/12/24 11:03:24;;;;;;;10.83;6.43;;;;;;;2.37;93.79;100106.19;5058455;28;20341;-77
2021/12/24 11:05:52;;;;;;;8.10;5.90;;;;;;;2.40;93.90;100103.78;5052120;28;20200;-77
2021/12/24 11:08:22;;;;;;;8.30;5.93;;;;;;;2.40;93.33;100093.69;5050837;28;20239;-77
2021/12/24 11:10:54;;;;;;;7.03;5.63;;;;;;;2.33;93.17;100096.75;5050859;28;20202;-76
2021/12/24 11:13:31;;;;;;;5.90;5.10;;;;;;;2.31;93.12;100099.25;5052687;28;20197;-77
2021/12/24 11:15:59;;;;;;;7.10;5.27;;;;;;;2.29;93.42;100102.53;5051630;28;20177;-77
2021/12/24 11:18:30;;;;;;;7.07;5.60;;;;;;;2.29;92.91;100094.94;5050555;28;20734;-77
2021/12/24 11:21:07;;;;;;;7.07;5.67;;;;;;;2.27;93.25;100099.94;5051858;28;20688;-77
2021/12/24 11:23:36;;;;;;;6.33;4.97;;;;;;;2.29;93.35;100103.38;5051794;28;20856;-77
2021/12/24 11:26:04;;;;;;;8.63;6.10;;;;;;;2.25;92.80;100103.19;5050490;28;20201;-76
2021/12/24 11:28:31;;;;;;;6.27;5.33;;;;;;;2.24;92.69;100109.91;5051860;28;20200;-76
2021/12/24 11:31:00;;;;;;;7.33;5.80;;;;;;;2.24;93.52;100109.91;5051262;28;20205;-70
2021/12/24 11:33:28;;;;;;;8.30;6.40;;;;;;;2.47;93.35;100106.63;5051038;28;20548;-71
2021/12/24 11:35:54;;;;;;;7.77;6.30;;;;;;;2.56;93.28;100109.50;5051296;28;20193;-69
2021/12/24 11:38:28;;;;;;;8.30;5.57;;;;;;;2.43;92.90;100107.28;5051151;28;20264;-71
2021/12/24 11:40:56;;;;;;;7.27;5.77;;;;;;;2.44;92.89;100101.44;5051237;28;20224;-77
2021/12/24 11:43:25;;;;;;;7.10;5.83;;;;;;;2.41;92.11;100108.03;5052110;28;20194;-77
2021/12/24 11:45:51;;;;;;;7.73;6.17;;;;;;;2.39;92.62;100107.13;5050577;28;20193;-78
2021/12/24 11:48:16;;;;;;;6.73;5.67;;;;;;;2.38;92.71;100105.38;5051868;28;20236;-77
2021/12/24 11:50:43;;;;;;;8.17;6.27;;;;;;;2.45;93.07;100113.28;5067064;28;21023;-77
2021/12/24 11:53:13;;;;;;;7.17;6.03;;;;;;;2.48;92.69;100117.59;5050432;28;20730;-77
2021/12/24 11:55:47;;;;;;;9.70;6.97;;;;;;;2.46;93.30;100122.56;5051493;28;20182;-77
2021/12/24 11:58:19;;;;;;;8.60;6.67;;;;;;;2.48;93.58;100127.69;5051308;28;20197;-77
2021/12/24 12:00:48;;;;;;;8.63;6.63;;;;;;;2.46;93.29;100137.75;5051268;28;20713;-77
2021/12/24 12:03:33;;;;;;;10.27;8.23;;;;;;;2.41;93.43;100141.75;5050880;28;20324;-76
2021/12/24 12:06:00;;;;;;;12.57;7.90;;;;;;;2.39;93.24;100143.31;5050646;28;20201;-75
2021/12/24 12:08:25;;;;;;;11.37;7.97;;;;;;;2.39;93.33;100139.97;5049244;28;20196;-75
2021/12/24 12:11:02;;;;;;;10.00;8.10;;;;;;;2.41;93.54;100148.44;5050549;28;20189;-75
2021/12/24 12:13:49;;;;;;;9.37;8.07;;;;;;;2.39;93.35;100150.06;5050417;28;20185;-76
2021/12/24 12:16:17;;;;;;;11.10;8.40;;;;;;;2.36;93.81;100153.34;5050536;28;20758;-76
2021/12/24 12:18:47;;;;;;;11.30;7.90;;;;;;;2.36;93.51;100157.50;5050370;28;20259;-76
2021/12/24 12:21:34;;;;;;;12.53;8.67;;;;;;;2.36;94.32;100150.81;5050564;28;20647;-76
2021/12/24 12:24:57;;;;;;;11.10;8.47;;;;;;;2.36;94.37;100160.03;5050534;28;20190;-75
2021/12/24 12:26:52;;;;;;;11.03;8.63;;;;;;;2.37;94.77;100159.22;5050225;28;20189;-75
2021/12/24 12:29:26;;;;;;;10.53;8.63;;;;;;;2.37;94.31;100164.28;5050172;28;20186;-76
2021/12/24 12:31:55;;;;;;;12.43;8.80;;;;;;;2.33;94.72;100158.25;5049082;28;20229;-75
2021/12/24 12:34:48;;;;;;;12.17;9.00;;;;;;;2.37;94.52;100159.22;5050767;28;20173;-76
2021/12/24 12:37:41;;;;;;;11.80;9.53;;;;;;;2.35;94.31;100165.88;5066443;28;20208;-76
2021/12/24 12:40:12;;;;;;;11.87;8.90;;;;;;;2.33;95.04;100170.88;5086068;28;20296;-76
2021/12/24 12:42:55;;;;;;;11.97;9.13;;;;;;;2.33;94.73;100175.06;5069607;28;20706;-76
2021/12/24 12:45:26;;;;;;;11.20;8.80;;;;;;;2.29;94.47;100181.66;5069990;28;20239;-78
2021/12/24 12:47:54;;;;;;;13.43;9.87;;;;;;;2.29;94.54;100183.34;5072307;28;20663;-78
2021/12/24 12:50:20;;;;;;;10.83;9.20;;;;;;;2.30;95.20;100185.88;5072054;28;20196;-78
2021/12/24 12:52:46;;;;;;;11.60;9.67;;;;;;;2.30;95.13;100187.56;5070587;28;20177;-78
2021/12/24 12:55:33;;;;;;;11.73;9.53;;;;;;;2.32;94.72;100188.47;5070064;28;20191;-77
2021/12/24 12:58:18;;;;;;;12.83;10.07;;;;;;;2.32;95.05;100193.53;5069959;28;20189;-76
2021/12/24 13:01:03;;;;;;;13.90;10.10;;;;;;;2.32;94.57;100193.53;5069777;28;20213;-76
2021/12/24 13:03:29;;;;;;;14.20;10.63;;;;;;;2.32;95.40;100207.03;5069973;28;20234;-76
2021/12/24 13:06:04;;;;;;;15.47;10.77;;;;;;;2.33;95.52;100201.19;5069795;28;20657;-77
2021/12/24 13:08:36;;;;;;;12.97;10.70;;;;;;;2.34;94.97;100207.09;5069768;28;20200;-77
2021/12/24 13:11:02;;;;;;;15.40;10.73;;;;;;;2.35;95.46;100208.81;5068482;28;20201;-77
2021/12/24 13:13:29;;;;;;;18.67;12.27;;;;;;;2.35;94.87;100212.19;5068559;28;20537;-77